createdAt,value
2022-11-10T00:02:57.303Z,55.60
2022-11-10T00:06:04.967Z,55.50
2022-11-10T00:09:11.708Z,55.60
2022-11-10T00:12:17.736Z,55.50
2022-11-10T00:15:41.445Z,55.60
2022-11-10T00:18:51.015Z,55.60
2022-11-10T00:21:57.321Z,55.50
2022-11-10T00:25:03.106Z,55.60
2022-11-10T00:28:08.957Z,55.60
2022-11-10T00:31:17.055Z,55.30
2022-11-10T00:34:25.196Z,54.90
2022-11-10T00:37:31.911Z,55.20
2022-11-10T00:40:38.010Z,55.20
2022-11-10T00:43:44.153Z,55.00
2022-11-10T00:46:49.823Z,55.20
2022-11-10T00:49:57.027Z,55.10
2022-11-10T00:53:02.638Z,55.00
2022-11-10T00:56:08.682Z,55.00
2022-11-10T00:59:14.723Z,54.90
2022-11-10T01:02:20.575Z,54.80
2022-11-10T01:05:28.089Z,55.00
2022-11-10T01:08:33.829Z,54.80
2022-11-10T01:11:40.001Z,54.90
2022-11-10T01:14:48.860Z,55.00
2022-11-10T01:17:56.199Z,54.80
2022-11-10T01:21:05.284Z,54.70
2022-11-10T01:24:11.516Z,54.70
2022-11-10T01:27:17.634Z,54.70
2022-11-10T01:30:23.729Z,54.50
2022-11-10T01:33:30.378Z,55.10
2022-11-10T01:36:37.689Z,54.50
2022-11-10T01:39:43.446Z,54.50
2022-11-10T01:42:57.307Z,54.60
2022-11-10T01:46:04.964Z,54.80
2022-11-10T01:49:12.691Z,54.70
2022-11-10T01:52:20.161Z,54.80
2022-11-10T01:55:27.228Z,54.70
2022-11-10T01:58:39.978Z,54.80
2022-11-10T02:01:48.327Z,54.50
2022-11-10T02:04:54.302Z,54.50
2022-11-10T02:08:02.942Z,54.50
2022-11-10T02:11:08.881Z,54.30
2022-11-10T02:14:16.516Z,54.20
2022-11-10T02:17:22.027Z,54.20
2022-11-10T02:20:27.763Z,54.20
2022-11-10T02:23:49.049Z,54.10
2022-11-10T02:26:57.338Z,53.80
2022-11-10T02:30:03.354Z,54.00
2022-11-10T02:33:09.137Z,54.10
2022-11-10T02:36:15.498Z,54.00
2022-11-10T02:39:22.698Z,54.10
2022-11-10T02:42:28.604Z,54.00
2022-11-10T02:45:34.493Z,54.40
2022-11-10T02:48:40.382Z,54.40
2022-11-10T02:51:46.206Z,54.30
2022-11-10T02:54:53.639Z,54.20
2022-11-10T02:57:59.796Z,54.30
2022-11-10T03:01:07.474Z,54.00
2022-11-10T03:04:13.876Z,54.00
2022-11-10T03:07:19.914Z,54.10
2022-11-10T03:10:28.347Z,54.10
2022-11-10T03:13:51.787Z,53.80
2022-11-10T03:17:00.305Z,53.70
2022-11-10T03:20:07.114Z,53.50
2022-11-10T03:23:12.874Z,53.50
2022-11-10T03:26:20.345Z,53.40
2022-11-10T03:29:26.234Z,53.20
2022-11-10T03:32:32.300Z,53.30
2022-11-10T03:35:38.354Z,53.40
2022-11-10T03:38:44.147Z,53.60
2022-11-10T03:41:51.579Z,53.50
2022-11-10T03:44:57.296Z,53.40
2022-11-10T03:48:03.230Z,53.70
2022-11-10T03:51:09.161Z,53.60
2022-11-10T03:54:14.983Z,53.50
2022-11-10T03:57:22.347Z,53.60
2022-11-10T04:00:29.315Z,53.60
2022-11-10T04:03:35.308Z,53.60
2022-11-10T04:06:58.632Z,53.50
2022-11-10T04:10:05.353Z,53.30
2022-11-10T04:13:31.516Z,53.20
2022-11-10T04:16:37.482Z,53.10
2022-11-10T04:19:43.636Z,53.20
2022-11-10T04:23:22.333Z,53.40
2022-11-10T04:26:30.934Z,53.30
2022-11-10T04:29:38.156Z,53.20
2022-11-10T04:32:44.028Z,53.00
2022-11-10T04:35:49.673Z,53.10
2022-11-10T04:38:56.465Z,53.10
2022-11-10T04:42:03.030Z,53.10
2022-11-10T04:45:11.428Z,52.90
2022-11-10T04:48:17.655Z,53.10
2022-11-10T04:51:26.147Z,53.30
2022-11-10T04:54:32.385Z,53.60
2022-11-10T04:57:38.510Z,53.70
2022-11-10T05:00:46.443Z,53.90
2022-11-10T05:03:52.986Z,53.90
2022-11-10T05:06:58.692Z,53.90
2022-11-10T05:10:05.320Z,53.90
2022-11-10T05:13:11.538Z,54.00
2022-11-10T05:16:18.796Z,54.00
2022-11-10T05:19:24.440Z,53.80
2022-11-10T05:22:30.866Z,53.70
2022-11-10T05:25:39.650Z,53.70
2022-11-10T05:28:47.460Z,53.60
2022-11-10T05:31:54.486Z,53.60
2022-11-10T05:35:00.323Z,53.50
2022-11-10T05:38:06.936Z,53.30
2022-11-10T05:41:13.221Z,53.00
2022-11-10T05:44:19.289Z,53.00
2022-11-10T05:47:26.701Z,53.00
2022-11-10T05:50:32.819Z,52.80
2022-11-10T05:53:38.918Z,52.80
2022-11-10T05:56:45.957Z,53.00
2022-11-10T05:59:52.499Z,52.80
2022-11-10T06:03:02.150Z,52.70
2022-11-10T06:06:09.090Z,52.40
2022-11-10T06:09:15.300Z,52.50
2022-11-10T06:12:21.825Z,52.70
2022-11-10T06:15:28.052Z,52.50
2022-11-10T06:18:35.545Z,52.50
2022-11-10T06:21:41.187Z,53.30
2022-11-10T06:24:47.067Z,53.00
2022-11-10T06:27:53.022Z,53.30
2022-11-10T06:30:59.397Z,53.60
2022-11-10T06:34:06.932Z,53.60
2022-11-10T06:37:12.959Z,53.60
2022-11-10T06:40:19.363Z,53.40
2022-11-10T06:43:25.491Z,52.80
2022-11-10T06:46:31.572Z,52.40
2022-11-10T06:49:39.158Z,52.40
2022-11-10T06:52:44.842Z,52.40
2022-11-10T06:55:51.745Z,52.50
2022-11-10T06:58:57.512Z,52.40
2022-11-10T07:02:03.747Z,52.40
2022-11-10T07:04:52.110Z,52.30
2022-11-10T07:07:39.653Z,52.20
2022-11-10T07:10:26.617Z,52.50
2022-11-10T07:13:13.709Z,52.50
2022-11-10T07:16:00.894Z,52.70
2022-11-10T07:18:49.218Z,52.90
2022-11-10T07:21:37.759Z,52.90
2022-11-10T07:24:24.615Z,52.80
2022-11-10T07:27:11.497Z,52.80
2022-11-10T07:29:58.513Z,53.20
2022-11-10T07:32:45.900Z,53.10
2022-11-10T07:35:34.698Z,53.20
2022-11-10T07:38:23.273Z,53.30
2022-11-10T07:41:10.659Z,53.20
2022-11-10T07:43:57.830Z,53.10
2022-11-10T07:46:44.774Z,53.10
2022-11-10T07:49:31.914Z,53.00
2022-11-10T07:52:18.915Z,53.20
2022-11-10T07:55:08.535Z,52.50
2022-11-10T07:57:59.157Z,52.20
2022-11-10T08:00:47.627Z,52.30
2022-11-10T08:03:34.853Z,52.70
2022-11-10T08:06:21.811Z,52.70
2022-11-10T08:09:08.974Z,52.90
2022-11-10T08:11:57.713Z,53.10
2022-11-10T08:14:44.932Z,53.50
2022-11-10T08:17:31.817Z,53.60
2022-11-10T08:20:19.626Z,53.90
2022-11-10T08:23:08.273Z,54.00
2022-11-10T08:25:55.448Z,54.20
2022-11-10T08:28:44.263Z,54.40
2022-11-10T08:31:33.338Z,54.50
2022-11-10T08:34:21.691Z,54.50
2022-11-10T08:37:09.087Z,54.60
2022-11-10T08:39:56.045Z,54.70
2022-11-10T08:42:42.961Z,54.80
2022-11-10T08:45:31.536Z,54.90
2022-11-10T08:48:20.748Z,55.00
2022-11-10T08:51:07.670Z,55.00
2022-11-10T08:53:54.736Z,55.10
2022-11-10T08:56:41.752Z,55.00
2022-11-10T08:59:28.667Z,55.10
2022-11-10T09:02:17.224Z,55.10
2022-11-10T09:05:04.519Z,55.10
2022-11-10T09:07:52.553Z,55.10
2022-11-10T09:10:43.096Z,55.00
2022-11-10T09:13:31.139Z,54.90
2022-11-10T09:16:18.719Z,54.90
2022-11-10T09:19:07.442Z,54.90
2022-11-10T09:21:54.781Z,54.90
2022-11-10T09:24:42.073Z,54.80
2022-11-10T09:27:29.574Z,54.80
2022-11-10T09:30:18.240Z,54.70
2022-11-10T09:33:05.672Z,54.70
2022-11-10T09:35:59.808Z,54.60
2022-11-10T09:38:47.005Z,54.50
2022-11-10T09:41:34.393Z,54.50
2022-11-10T09:44:26.994Z,54.50
2022-11-10T09:47:50.789Z,54.30
2022-11-10T09:50:38.345Z,54.40
2022-11-10T09:53:32.731Z,54.30
2022-11-10T09:56:27.384Z,54.30
2022-11-10T09:59:20.875Z,54.30
2022-11-10T10:02:22.523Z,54.30
2022-11-10T10:05:47.666Z,54.40
2022-11-10T10:08:50.784Z,54.30
2022-11-10T10:11:55.131Z,54.40
2022-11-10T10:15:16.731Z,54.30
2022-11-10T10:18:22.602Z,54.30
2022-11-10T10:21:28.445Z,54.30
2022-11-10T10:24:22.100Z,54.30
2022-11-10T10:27:18.761Z,54.30
2022-11-10T10:30:15.195Z,54.20
2022-11-10T10:33:15.906Z,54.30
2022-11-10T10:36:09.814Z,54.30
2022-11-10T10:39:02.957Z,54.30
2022-11-10T10:41:51.250Z,54.20
2022-11-10T10:44:38.461Z,54.20
2022-11-10T10:47:38.373Z,54.20
2022-11-10T10:50:32.347Z,54.20
2022-11-10T10:53:22.493Z,54.10
2022-11-10T10:56:20.234Z,54.10
2022-11-10T10:59:21.702Z,54.00
2022-11-10T11:02:27.038Z,54.00
2022-11-10T11:05:17.645Z,54.00
2022-11-10T11:08:05.813Z,53.90
2022-11-10T11:10:53.108Z,54.00
2022-11-10T11:13:40.137Z,53.90
2022-11-10T11:16:28.755Z,53.90
2022-11-10T11:19:16.456Z,53.90
2022-11-10T11:22:46.305Z,53.90
2022-11-10T11:25:37.820Z,53.80
2022-11-10T11:28:36.071Z,53.80
2022-11-10T11:31:42.816Z,53.70
2022-11-10T11:34:41.197Z,53.80
2022-11-10T11:37:33.977Z,53.70
2022-11-10T11:40:30.197Z,54.40
2022-11-10T11:44:02.011Z,53.80
2022-11-10T11:47:10.656Z,53.80
2022-11-10T11:50:15.627Z,53.70
2022-11-10T11:53:21.180Z,53.70
2022-11-10T11:56:22.762Z,54.30
2022-11-10T11:59:38.234Z,53.80
2022-11-10T12:03:01.397Z,53.80
2022-11-10T12:06:01.581Z,53.80
2022-11-10T12:09:02.740Z,53.80
2022-11-10T12:12:07.816Z,53.80
2022-11-10T12:15:03.995Z,53.80
2022-11-10T12:18:05.364Z,53.80
2022-11-10T12:21:09.421Z,53.80
2022-11-10T12:24:18.004Z,53.60
2022-11-10T12:27:14.139Z,53.60
2022-11-10T12:30:06.419Z,53.80
2022-11-10T12:33:00.786Z,53.80
2022-11-10T12:35:48.204Z,53.90
2022-11-10T12:38:59.467Z,53.90
2022-11-10T12:41:51.044Z,53.80
2022-11-10T12:44:55.783Z,53.80
2022-11-10T12:47:45.732Z,53.80
2022-11-10T12:50:52.700Z,53.60
2022-11-10T12:53:42.256Z,53.80
2022-11-10T12:56:35.846Z,53.80
2022-11-10T12:59:33.623Z,53.60
2022-11-10T13:02:33.140Z,53.60
2022-11-10T13:05:31.261Z,53.80
2022-11-10T13:08:28.322Z,53.80
2022-11-10T13:11:29.392Z,53.80
2022-11-10T13:14:26.424Z,53.80
2022-11-10T13:18:00.707Z,53.80
2022-11-10T13:20:53.362Z,53.80
2022-11-10T13:24:25.403Z,53.60
2022-11-10T13:27:14.962Z,53.60
2022-11-10T13:30:02.205Z,53.50
2022-11-10T13:32:50.821Z,53.60
2022-11-10T13:35:55.453Z,53.60
2022-11-10T13:38:44.367Z,53.50
2022-11-10T13:41:35.608Z,53.60
2022-11-10T13:44:26.255Z,53.60
2022-11-10T13:47:47.988Z,53.70
2022-11-10T13:50:54.190Z,53.50
2022-11-10T13:53:56.187Z,53.60
2022-11-10T13:57:13.037Z,53.70
2022-11-10T14:00:04.763Z,53.70
2022-11-10T14:02:56.078Z,53.60
2022-11-10T14:06:11.344Z,53.60
2022-11-10T14:09:06.171Z,53.70
2022-11-10T14:11:59.807Z,53.80
2022-11-10T14:14:56.122Z,53.70
2022-11-10T14:17:49.627Z,53.80
2022-11-10T14:20:44.488Z,53.60
2022-11-10T14:23:38.269Z,53.60
2022-11-10T14:26:33.268Z,53.60
2022-11-10T14:29:34.140Z,53.60
2022-11-10T14:32:24.856Z,53.60
2022-11-10T14:35:22.927Z,53.60
2022-11-10T14:38:21.109Z,53.50
2022-11-10T14:41:18.841Z,53.60
2022-11-10T14:44:08.263Z,53.50
2022-11-10T14:46:56.975Z,53.60
2022-11-10T14:49:45.023Z,53.60
2022-11-10T14:52:31.982Z,53.60
2022-11-10T14:55:23.227Z,53.60
2022-11-10T14:58:14.956Z,53.60
2022-11-10T15:01:03.838Z,53.50
2022-11-10T15:03:53.142Z,53.50
2022-11-10T15:06:45.779Z,53.40
2022-11-10T15:09:35.235Z,53.50
2022-11-10T15:12:27.453Z,53.50
2022-11-10T15:15:22.522Z,53.50
2022-11-10T15:18:27.040Z,53.50
2022-11-10T15:21:19.925Z,53.60
2022-11-10T15:24:08.297Z,53.50
2022-11-10T15:26:55.762Z,53.50
2022-11-10T15:29:42.914Z,53.50
2022-11-10T15:32:36.279Z,53.40
2022-11-10T15:35:31.762Z,54.10
2022-11-10T15:38:32.185Z,53.50
2022-11-10T15:41:27.344Z,53.40
2022-11-10T15:44:22.341Z,53.50
2022-11-10T15:47:14.454Z,53.40
2022-11-10T15:50:02.244Z,53.40
2022-11-10T15:52:49.374Z,53.40
2022-11-10T15:55:37.656Z,53.40
2022-11-10T15:58:25.513Z,53.30
2022-11-10T16:01:13.836Z,53.30
2022-11-10T16:04:01.616Z,53.30
2022-11-10T16:06:48.801Z,53.40
2022-11-10T16:09:35.972Z,53.50
2022-11-10T16:12:25.246Z,53.50
2022-11-10T16:15:20.970Z,53.50
2022-11-10T16:18:14.007Z,53.60
2022-11-10T16:21:01.317Z,53.60
2022-11-10T16:23:48.584Z,53.60
2022-11-10T16:26:36.133Z,53.50
2022-11-10T16:29:24.993Z,53.50
2022-11-10T16:32:13.159Z,53.30
2022-11-10T16:35:00.618Z,53.20
2022-11-10T16:37:47.694Z,53.00
2022-11-10T16:40:35.116Z,53.10
2022-11-10T16:43:22.973Z,53.10
2022-11-10T16:46:20.430Z,53.20
2022-11-10T16:49:22.355Z,53.10
2022-11-10T16:52:15.527Z,53.30
2022-11-10T16:55:02.544Z,53.30
2022-11-10T16:57:49.735Z,53.30
2022-11-10T17:00:37.587Z,53.30
2022-11-10T17:03:32.657Z,53.30
2022-11-10T17:06:21.629Z,53.20
2022-11-10T17:09:19.090Z,53.20
2022-11-10T17:12:06.978Z,53.10
2022-11-10T17:14:53.939Z,53.00
2022-11-10T17:17:41.950Z,52.90
2022-11-10T17:20:36.141Z,52.80
2022-11-10T17:23:25.977Z,52.60
2022-11-10T17:26:15.569Z,52.60
2022-11-10T17:29:02.494Z,52.60
2022-11-10T17:31:51.015Z,52.50
2022-11-10T17:34:37.997Z,52.40
2022-11-10T17:37:26.414Z,52.30
2022-11-10T17:40:20.431Z,52.10
2022-11-10T17:43:07.449Z,52.00
2022-11-10T17:45:54.384Z,52.10
2022-11-10T17:48:41.975Z,52.20
2022-11-10T17:51:29.224Z,52.10
2022-11-10T17:54:18.452Z,52.10
2022-11-10T17:57:06.745Z,52.10
2022-11-10T17:59:55.418Z,52.10
2022-11-10T18:02:43.435Z,52.00
2022-11-10T18:05:30.891Z,52.00
2022-11-10T18:08:19.136Z,52.00
2022-11-10T18:11:07.518Z,52.10
2022-11-10T18:13:54.416Z,52.20
2022-11-10T18:16:41.745Z,52.20
2022-11-10T18:19:28.655Z,52.10
2022-11-10T18:22:16.056Z,52.10
2022-11-10T18:25:02.986Z,52.10
2022-11-10T18:27:51.444Z,52.20
2022-11-10T18:30:39.608Z,52.10
2022-11-10T18:33:26.948Z,52.10
2022-11-10T18:36:13.834Z,52.10
2022-11-10T18:39:01.240Z,52.00
2022-11-10T18:41:50.884Z,52.00
2022-11-10T18:44:39.516Z,52.00
2022-11-10T18:47:26.646Z,51.80
2022-11-10T18:50:14.366Z,51.90
2022-11-10T18:53:01.319Z,51.90
2022-11-10T18:55:55.621Z,51.90
2022-11-10T18:58:43.464Z,51.80
2022-11-10T19:01:32.380Z,51.90
2022-11-10T19:04:19.817Z,51.90
2022-11-10T19:07:07.529Z,52.10
2022-11-10T19:09:55.224Z,52.20
2022-11-10T19:12:42.341Z,52.20
2022-11-10T19:15:29.832Z,52.20
2022-11-10T19:18:18.687Z,52.40
2022-11-10T19:21:06.857Z,52.40
2022-11-10T19:23:56.902Z,52.20
2022-11-10T19:26:44.276Z,52.40
2022-11-10T19:29:31.546Z,52.50
2022-11-10T19:32:23.610Z,52.40
2022-11-10T19:35:13.642Z,52.20
2022-11-10T19:38:00.883Z,52.70
2022-11-10T19:40:47.764Z,52.10
2022-11-10T19:43:35.156Z,51.90
2022-11-10T19:46:24.684Z,51.90
2022-11-10T19:49:12.028Z,51.80
2022-11-10T19:52:00.756Z,51.80
2022-11-10T19:54:48.036Z,51.80
2022-11-10T19:57:34.865Z,51.70
2022-11-10T20:00:21.818Z,51.60
2022-11-10T20:03:11.528Z,51.40
2022-11-10T20:06:01.373Z,51.50
2022-11-10T20:08:50.469Z,51.70
2022-11-10T20:11:37.893Z,51.30
2022-11-10T20:14:25.251Z,51.50
2022-11-10T20:17:12.518Z,51.50
2022-11-10T20:19:59.654Z,51.40
2022-11-10T20:22:46.584Z,51.40
2022-11-10T20:25:35.667Z,51.40
2022-11-10T20:28:22.877Z,51.30
2022-11-10T20:31:13.543Z,51.60
2022-11-10T20:34:00.582Z,51.40
2022-11-10T20:36:47.763Z,51.50
2022-11-10T20:39:34.776Z,51.50
2022-11-10T20:42:23.237Z,51.40
2022-11-10T20:45:11.509Z,51.40
2022-11-10T20:47:59.842Z,51.40
2022-11-10T20:50:47.021Z,51.20
2022-11-10T20:53:33.925Z,51.30
2022-11-10T20:56:25.390Z,51.20
2022-11-10T20:59:17.996Z,51.10
2022-11-10T21:02:04.979Z,51.10
2022-11-10T21:05:11.407Z,51.30
2022-11-10T21:08:17.392Z,51.20
2022-11-10T21:11:37.370Z,51.10
2022-11-10T21:14:44.748Z,51.10
2022-11-10T21:17:50.537Z,51.10
2022-11-10T21:20:56.635Z,51.20
2022-11-10T21:24:02.986Z,51.10
2022-11-10T21:27:11.675Z,51.20
2022-11-10T21:30:23.960Z,51.10
2022-11-10T21:33:30.193Z,50.90
2022-11-10T21:36:36.362Z,50.90
2022-11-10T21:39:43.983Z,51.00
2022-11-10T21:42:49.688Z,50.70
2022-11-10T21:46:01.188Z,50.50
2022-11-10T21:49:08.042Z,50.50
2022-11-10T21:52:14.274Z,50.60
2022-11-10T21:55:20.432Z,50.50
2022-11-10T21:58:26.719Z,50.50
2022-11-10T22:01:34.024Z,50.50
2022-11-10T22:04:40.505Z,50.60
2022-11-10T22:07:46.317Z,50.60
2022-11-10T22:11:09.953Z,50.70
2022-11-10T22:14:29.856Z,50.50
2022-11-10T22:17:54.155Z,50.40
2022-11-10T22:21:00.356Z,50.30
2022-11-10T22:24:26.608Z,50.20
2022-11-10T22:27:32.573Z,50.20
2022-11-10T22:30:38.840Z,50.10
2022-11-10T22:33:46.053Z,50.00
2022-11-10T22:36:53.643Z,50.00
2022-11-10T22:40:17.692Z,50.50
2022-11-10T22:43:41.183Z,50.60
2022-11-10T22:46:51.115Z,50.50
2022-11-10T22:49:58.117Z,50.50
2022-11-10T22:53:03.865Z,50.80
2022-11-10T22:56:10.344Z,51.00
2022-11-10T22:59:17.270Z,51.10
2022-11-10T23:02:23.155Z,50.70
2022-11-10T23:05:30.428Z,50.90
2022-11-10T23:08:37.229Z,50.60
2022-11-10T23:11:42.942Z,51.00
2022-11-10T23:14:48.908Z,51.10
2022-11-10T23:17:56.567Z,51.20
2022-11-10T23:21:07.345Z,50.80
2022-11-10T23:24:14.530Z,50.50
2022-11-10T23:27:20.306Z,50.40
2022-11-10T23:30:26.319Z,50.40
2022-11-10T23:33:33.438Z,50.30
2022-11-10T23:36:42.012Z,50.20
2022-11-10T23:39:47.784Z,50.20
2022-11-10T23:42:54.155Z,50.20
2022-11-10T23:46:07.006Z,50.20
2022-11-10T23:49:13.551Z,50.20
2022-11-10T23:52:20.958Z,50.40
2022-11-10T23:55:26.867Z,50.00
2022-11-10T23:58:33.647Z,50.00
